sensor_id;sensor_type;location;lat;lon;timestamp;temperature;humidity
45807;DHT22;31507;51.494;7.518;2023-05-25T00:00:11;7.20;99.90
45807;DHT22;31507;51.494;7.518;2023-05-25T00:02:39;7.30;99.90
45807;DHT22;31507;51.494;7.518;2023-05-25T00:05:07;7.40;99.90
45807;DHT22;31507;51.494;7.518;2023-05-25T00:07:33;7.50;99.90
45807;DHT22;31507;51.494;7.518;2023-05-25T00:09:59;7.60;99.90
45807;DHT22;31507;51.494;7.518;2023-05-25T00:12:25;7.70;99.90
45807;DHT22;31507;51.494;7.518;2023-05-25T00:14:51;7.80;99.90
45807;DHT22;31507;51.494;7.518;2023-05-25T00:17:17;7.90;99.90
45807;DHT22;31507;51.494;7.518;2023-05-25T00:19:43;7.90;99.90
45807;DHT22;31507;51.494;7.518;2023-05-25T00:22:12;7.90;99.90
45807;DHT22;31507;51.494;7.518;2023-05-25T00:24:38;7.90;99.90
45807;DHT22;31507;51.494;7.518;2023-05-25T00:27:04;7.90;99.90
45807;DHT22;31507;51.494;7.518;2023-05-25T00:29:31;7.90;99.90
45807;DHT22;31507;51.494;7.518;2023-05-25T00:31:57;7.90;99.90
45807;DHT22;31507;51.494;7.518;2023-05-25T00:34:23;7.80;99.90
45807;DHT22;31507;51.494;7.518;2023-05-25T00:36:48;7.80;99.90
45807;DHT22;31507;51.494;7.518;2023-05-25T00:39:18;7.80;99.90
45807;DHT22;31507;51.494;7.518;2023-05-25T00:41:44;7.70;99.90
45807;DHT22;31507;51.494;7.518;2023-05-25T00:44:11;7.60;99.90
45807;DHT22;31507;51.494;7.518;2023-05-25T00:46:47;7.50;99.90
45807;DHT22;31507;51.494;7.518;2023-05-25T00:49:14;7.50;99.90
45807;DHT22;31507;51.494;7.518;2023-05-25T00:51:41;7.30;99.90
45807;DHT22;31507;51.494;7.518;2023-05-25T00:54:07;7.30;99.90
45807;DHT22;31507;51.494;7.518;2023-05-25T00:56:37;7.20;99.90
45807;DHT22;31507;51.494;7.518;2023-05-25T00:59:05;7.10;99.90
45807;DHT22;31507;51.494;7.518;2023-05-25T01:01:35;6.90;99.90
45807;DHT22;31507;51.494;7.518;2023-05-25T01:04:07;6.80;99.90
45807;DHT22;31507;51.494;7.518;2023-05-25T01:06:35;6.80;99.90
45807;DHT22;31507;51.494;7.518;2023-05-25T01:09:04;6.80;99.90
45807;DHT22;31507;51.494;7.518;2023-05-25T01:11:39;6.70;99.90
45807;DHT22;31507;51.494;7.518;2023-05-25T01:14:05;6.70;99.90
45807;DHT22;31507;51.494;7.518;2023-05-25T01:16:31;6.70;99.90
45807;DHT22;31507;51.494;7.518;2023-05-25T01:18:57;6.70;99.90
45807;DHT22;31507;51.494;7.518;2023-05-25T01:21:43;6.60;99.90
45807;DHT22;31507;51.494;7.518;2023-05-25T01:24:29;6.60;99.90
45807;DHT22;31507;51.494;7.518;2023-05-25T01:27:06;6.50;99.90
45807;DHT22;31507;51.494;7.518;2023-05-25T01:29:34;6.50;99.90
45807;DHT22;31507;51.494;7.518;2023-05-25T01:32:02;6.50;99.90
45807;DHT22;31507;51.494;7.518;2023-05-25T01:34:29;6.40;99.90
45807;DHT22;31507;51.494;7.518;2023-05-25T01:36:55;6.40;99.90
45807;DHT22;31507;51.494;7.518;2023-05-25T01:39:22;6.40;99.90
45807;DHT22;31507;51.494;7.518;2023-05-25T01:41:48;6.40;99.90
45807;DHT22;31507;51.494;7.518;2023-05-25T01:44:14;6.30;99.90
45807;DHT22;31507;51.494;7.518;2023-05-25T01:46:41;6.30;99.90
45807;DHT22;31507;51.494;7.518;2023-05-25T01:49:38;6.30;99.90
45807;DHT22;31507;51.494;7.518;2023-05-25T01:52:25;6.20;99.90
45807;DHT22;31507;51.494;7.518;2023-05-25T01:54:59;6.20;99.90
45807;DHT22;31507;51.494;7.518;2023-05-25T01:57:28;6.20;99.90
45807;DHT22;31507;51.494;7.518;2023-05-25T01:59:55;6.20;99.90
45807;DHT22;31507;51.494;7.518;2023-05-25T02:02:25;6.30;99.90
45807;DHT22;31507;51.494;7.518;2023-05-25T02:04:52;6.30;99.90
45807;DHT22;31507;51.494;7.518;2023-05-25T02:07:19;6.30;99.90
45807;DHT22;31507;51.494;7.518;2023-05-25T02:09:45;6.20;99.90
45807;DHT22;31507;51.494;7.518;2023-05-25T02:12:11;6.20;99.90
45807;DHT22;31507;51.494;7.518;2023-05-25T02:14:36;6.20;99.90
45807;DHT22;31507;51.494;7.518;2023-05-25T02:17:02;6.10;99.90
45807;DHT22;31507;51.494;7.518;2023-05-25T02:19:28;6.10;99.90
45807;DHT22;31507;51.494;7.518;2023-05-25T02:21:54;6.00;99.90
45807;DHT22;31507;51.494;7.518;2023-05-25T02:24:21;6.00;99.90
45807;DHT22;31507;51.494;7.518;2023-05-25T02:26:49;6.00;99.90
45807;DHT22;31507;51.494;7.518;2023-05-25T02:29:15;6.00;99.90
45807;DHT22;31507;51.494;7.518;2023-05-25T02:31:41;6.00;99.90
45807;DHT22;31507;51.494;7.518;2023-05-25T02:34:06;6.10;99.90
45807;DHT22;31507;51.494;7.518;2023-05-25T02:36:33;6.10;99.90
45807;DHT22;31507;51.494;7.518;2023-05-25T02:39:01;6.10;99.90
45807;DHT22;31507;51.494;7.518;2023-05-25T02:41:27;6.00;99.90
45807;DHT22;31507;51.494;7.518;2023-05-25T02:43:53;6.00;99.90
45807;DHT22;31507;51.494;7.518;2023-05-25T02:46:19;5.90;99.90
45807;DHT22;31507;51.494;7.518;2023-05-25T02:48:46;5.80;99.90
45807;DHT22;31507;51.494;7.518;2023-05-25T02:51:11;5.80;99.90
45807;DHT22;31507;51.494;7.518;2023-05-25T02:53:37;5.80;99.90
45807;DHT22;31507;51.494;7.518;2023-05-25T02:56:03;5.80;99.90
45807;DHT22;31507;51.494;7.518;2023-05-25T02:58:30;5.80;99.90
45807;DHT22;31507;51.494;7.518;2023-05-25T03:00:56;5.80;99.90
45807;DHT22;31507;51.494;7.518;2023-05-25T03:03:24;5.80;99.90
45807;DHT22;31507;51.494;7.518;2023-05-25T03:05:50;5.70;99.90
45807;DHT22;31507;51.494;7.518;2023-05-25T03:08:16;5.70;99.90
45807;DHT22;31507;51.494;7.518;2023-05-25T03:10:42;5.70;99.90
45807;DHT22;31507;51.494;7.518;2023-05-25T03:13:07;5.70;99.90
45807;DHT22;31507;51.494;7.518;2023-05-25T03:15:33;5.70;99.90
45807;DHT22;31507;51.494;7.518;2023-05-25T03:17:58;5.60;99.90
45807;DHT22;31507;51.494;7.518;2023-05-25T03:20:26;5.60;99.90
45807;DHT22;31507;51.494;7.518;2023-05-25T03:22:53;5.50;99.90
45807;DHT22;31507;51.494;7.518;2023-05-25T03:25:19;5.50;99.90
45807;DHT22;31507;51.494;7.518;2023-05-25T03:27:44;5.50;99.90
45807;DHT22;31507;51.494;7.518;2023-05-25T03:30:10;5.60;99.90
45807;DHT22;31507;51.494;7.518;2023-05-25T03:32:36;5.60;99.90
45807;DHT22;31507;51.494;7.518;2023-05-25T03:35:03;5.60;99.90
45807;DHT22;31507;51.494;7.518;2023-05-25T03:37:29;5.60;99.90
45807;DHT22;31507;51.494;7.518;2023-05-25T03:39:55;5.50;99.90
45807;DHT22;31507;51.494;7.518;2023-05-25T03:42:20;5.50;99.90
45807;DHT22;31507;51.494;7.518;2023-05-25T03:44:46;5.50;99.90
45807;DHT22;31507;51.494;7.518;2023-05-25T03:47:11;5.50;99.90
45807;DHT22;31507;51.494;7.518;2023-05-25T03:49:37;5.50;99.90
45807;DHT22;31507;51.494;7.518;2023-05-25T03:52:03;5.50;99.90
45807;DHT22;31507;51.494;7.518;2023-05-25T03:54:30;5.50;99.90
45807;DHT22;31507;51.494;7.518;2023-05-25T03:56:56;5.50;99.90
45807;DHT22;31507;51.494;7.518;2023-05-25T03:59:23;5.50;99.90
45807;DHT22;31507;51.494;7.518;2023-05-25T04:01:50;5.50;99.90
45807;DHT22;31507;51.494;7.518;2023-05-25T04:04:15;5.50;99.90
45807;DHT22;31507;51.494;7.518;2023-05-25T04:06:42;5.60;99.90
45807;DHT22;31507;51.494;7.518;2023-05-25T04:09:10;5.60;99.90
45807;DHT22;31507;51.494;7.518;2023-05-25T04:11:36;5.70;99.90
45807;DHT22;31507;51.494;7.518;2023-05-25T04:14:02;5.80;99.90
45807;DHT22;31507;51.494;7.518;2023-05-25T04:16:28;5.80;99.90
45807;DHT22;31507;51.494;7.518;2023-05-25T04:18:54;5.80;99.90
45807;DHT22;31507;51.494;7.518;2023-05-25T04:21:21;5.90;99.90
45807;DHT22;31507;51.494;7.518;2023-05-25T04:23:46;5.90;99.90
45807;DHT22;31507;51.494;7.518;2023-05-25T04:26:12;6.10;99.90
45807;DHT22;31507;51.494;7.518;2023-05-25T04:28:40;6.20;99.90
45807;DHT22;31507;51.494;7.518;2023-05-25T04:31:06;6.30;99.90
45807;DHT22;31507;51.494;7.518;2023-05-25T04:33:32;6.50;99.90
45807;DHT22;31507;51.494;7.518;2023-05-25T04:35:59;6.60;99.90
45807;DHT22;31507;51.494;7.518;2023-05-25T04:38:24;6.80;99.90
45807;DHT22;31507;51.494;7.518;2023-05-25T04:40:51;7.00;99.90
45807;DHT22;31507;51.494;7.518;2023-05-25T04:43:18;7.10;99.90
45807;DHT22;31507;51.494;7.518;2023-05-25T04:45:45;7.30;99.90
45807;DHT22;31507;51.494;7.518;2023-05-25T04:48:11;7.40;99.90
45807;DHT22;31507;51.494;7.518;2023-05-25T04:50:38;7.60;99.90
45807;DHT22;31507;51.494;7.518;2023-05-25T04:53:05;7.80;99.90
45807;DHT22;31507;51.494;7.518;2023-05-25T04:55:31;7.90;99.90
45807;DHT22;31507;51.494;7.518;2023-05-25T04:57:56;7.90;99.90
45807;DHT22;31507;51.494;7.518;2023-05-25T05:00:23;8.00;99.90
45807;DHT22;31507;51.494;7.518;2023-05-25T05:02:49;8.00;99.90
45807;DHT22;31507;51.494;7.518;2023-05-25T05:05:16;7.90;99.90
45807;DHT22;31507;51.494;7.518;2023-05-25T05:07:41;7.90;99.90
45807;DHT22;31507;51.494;7.518;2023-05-25T05:10:07;7.80;99.90
45807;DHT22;31507;51.494;7.518;2023-05-25T05:12:33;7.70;99.90
45807;DHT22;31507;51.494;7.518;2023-05-25T05:14:59;7.70;99.90
45807;DHT22;31507;51.494;7.518;2023-05-25T05:17:24;7.70;99.90
45807;DHT22;31507;51.494;7.518;2023-05-25T05:19:52;7.80;99.90
45807;DHT22;31507;51.494;7.518;2023-05-25T05:22:18;8.00;99.90
45807;DHT22;31507;51.494;7.518;2023-05-25T05:24:43;8.20;99.90
45807;DHT22;31507;51.494;7.518;2023-05-25T05:27:11;8.40;99.90
45807;DHT22;31507;51.494;7.518;2023-05-25T05:29:38;8.60;99.90
45807;DHT22;31507;51.494;7.518;2023-05-25T05:32:04;8.70;99.90
45807;DHT22;31507;51.494;7.518;2023-05-25T05:34:29;8.80;99.90
45807;DHT22;31507;51.494;7.518;2023-05-25T05:36:55;9.00;99.90
45807;DHT22;31507;51.494;7.518;2023-05-25T05:39:21;9.20;99.90
45807;DHT22;31507;51.494;7.518;2023-05-25T05:41:47;9.30;99.90
45807;DHT22;31507;51.494;7.518;2023-05-25T05:44:12;9.40;99.90
45807;DHT22;31507;51.494;7.518;2023-05-25T05:46:38;9.60;99.90
45807;DHT22;31507;51.494;7.518;2023-05-25T05:49:04;9.70;99.90
45807;DHT22;31507;51.494;7.518;2023-05-25T05:51:29;9.70;99.90
45807;DHT22;31507;51.494;7.518;2023-05-25T05:53:55;9.70;99.90
45807;DHT22;31507;51.494;7.518;2023-05-25T05:56:20;9.80;99.90
45807;DHT22;31507;51.494;7.518;2023-05-25T05:58:46;9.90;99.90
45807;DHT22;31507;51.494;7.518;2023-05-25T06:01:14;9.90;99.90
45807;DHT22;31507;51.494;7.518;2023-05-25T06:03:42;10.00;99.90
45807;DHT22;31507;51.494;7.518;2023-05-25T06:06:08;9.90;99.90
45807;DHT22;31507;51.494;7.518;2023-05-25T06:08:34;9.90;99.90
45807;DHT22;31507;51.494;7.518;2023-05-25T06:10:59;10.00;99.90
45807;DHT22;31507;51.494;7.518;2023-05-25T06:13:25;10.00;99.90
45807;DHT22;31507;51.494;7.518;2023-05-25T06:15:50;10.20;99.90
45807;DHT22;31507;51.494;7.518;2023-05-25T06:18:16;10.30;99.90
45807;DHT22;31507;51.494;7.518;2023-05-25T06:20:42;10.30;99.90
45807;DHT22;31507;51.494;7.518;2023-05-25T06:23:08;10.50;99.90
45807;DHT22;31507;51.494;7.518;2023-05-25T06:25:36;10.80;99.90
45807;DHT22;31507;51.494;7.518;2023-05-25T06:28:01;11.00;99.90
45807;DHT22;31507;51.494;7.518;2023-05-25T06:30:27;11.10;99.90
45807;DHT22;31507;51.494;7.518;2023-05-25T06:32:53;11.20;99.90
45807;DHT22;31507;51.494;7.518;2023-05-25T06:35:18;11.40;99.90
45807;DHT22;31507;51.494;7.518;2023-05-25T06:37:46;11.50;99.90
45807;DHT22;31507;51.494;7.518;2023-05-25T06:40:11;11.50;99.90
45807;DHT22;31507;51.494;7.518;2023-05-25T06:42:37;12.10;99.90
45807;DHT22;31507;51.494;7.518;2023-05-25T06:45:06;12.40;99.90
45807;DHT22;31507;51.494;7.518;2023-05-25T06:47:32;12.40;99.90
45807;DHT22;31507;51.494;7.518;2023-05-25T06:49:59;12.70;99.90
45807;DHT22;31507;51.494;7.518;2023-05-25T06:52:24;12.60;99.90
45807;DHT22;31507;51.494;7.518;2023-05-25T06:54:53;12.20;99.90
45807;DHT22;31507;51.494;7.518;2023-05-25T06:57:18;12.60;99.90
45807;DHT22;31507;51.494;7.518;2023-05-25T06:59:44;12.50;99.90
45807;DHT22;31507;51.494;7.518;2023-05-25T07:02:10;12.50;99.90
45807;DHT22;31507;51.494;7.518;2023-05-25T07:04:36;12.50;99.90
45807;DHT22;31507;51.494;7.518;2023-05-25T07:07:02;12.50;99.90
45807;DHT22;31507;51.494;7.518;2023-05-25T07:09:28;12.40;99.90
45807;DHT22;31507;51.494;7.518;2023-05-25T07:11:54;12.30;99.90
45807;DHT22;31507;51.494;7.518;2023-05-25T07:14:19;12.30;99.90
45807;DHT22;31507;51.494;7.518;2023-05-25T07:16:45;12.30;99.90
45807;DHT22;31507;51.494;7.518;2023-05-25T07:19:11;12.20;99.90
45807;DHT22;31507;51.494;7.518;2023-05-25T07:21:37;12.30;99.90
45807;DHT22;31507;51.494;7.518;2023-05-25T07:24:04;12.40;99.90
45807;DHT22;31507;51.494;7.518;2023-05-25T07:26:30;12.40;99.90
45807;DHT22;31507;51.494;7.518;2023-05-25T07:28:56;12.30;99.90
45807;DHT22;31507;51.494;7.518;2023-05-25T07:31:22;12.30;99.90
45807;DHT22;31507;51.494;7.518;2023-05-25T07:33:51;12.30;99.90
45807;DHT22;31507;51.494;7.518;2023-05-25T07:36:18;12.30;99.90
45807;DHT22;31507;51.494;7.518;2023-05-25T07:38:45;12.40;99.90
45807;DHT22;31507;51.494;7.518;2023-05-25T07:41:11;12.50;99.90
45807;DHT22;31507;51.494;7.518;2023-05-25T07:43:38;12.50;99.90
45807;DHT22;31507;51.494;7.518;2023-05-25T07:46:03;12.50;99.90
45807;DHT22;31507;51.494;7.518;2023-05-25T07:48:29;12.40;99.90
45807;DHT22;31507;51.494;7.518;2023-05-25T07:50:55;12.40;99.90
45807;DHT22;31507;51.494;7.518;2023-05-25T07:53:20;12.30;99.90
45807;DHT22;31507;51.494;7.518;2023-05-25T07:55:46;12.20;99.90
45807;DHT22;31507;51.494;7.518;2023-05-25T07:58:12;12.20;99.90
45807;DHT22;31507;51.494;7.518;2023-05-25T08:00:37;12.20;99.90
45807;DHT22;31507;51.494;7.518;2023-05-25T08:03:03;12.30;99.90
45807;DHT22;31507;51.494;7.518;2023-05-25T08:05:29;12.50;99.90
45807;DHT22;31507;51.494;7.518;2023-05-25T08:07:54;12.50;99.90
45807;DHT22;31507;51.494;7.518;2023-05-25T08:10:20;12.50;99.90
45807;DHT22;31507;51.494;7.518;2023-05-25T08:12:46;12.50;99.90
45807;DHT22;31507;51.494;7.518;2023-05-25T08:15:11;12.70;99.90
45807;DHT22;31507;51.494;7.518;2023-05-25T08:17:38;12.90;99.90
45807;DHT22;31507;51.494;7.518;2023-05-25T08:20:05;12.90;99.90
45807;DHT22;31507;51.494;7.518;2023-05-25T08:22:33;13.00;99.90
45807;DHT22;31507;51.494;7.518;2023-05-25T08:24:58;13.00;99.90
45807;DHT22;31507;51.494;7.518;2023-05-25T08:27:24;13.00;99.90
45807;DHT22;31507;51.494;7.518;2023-05-25T08:29:49;13.10;99.90
45807;DHT22;31507;51.494;7.518;2023-05-25T08:32:15;13.20;99.90
45807;DHT22;31507;51.494;7.518;2023-05-25T08:34:41;13.30;99.90
45807;DHT22;31507;51.494;7.518;2023-05-25T08:37:06;13.40;99.90
45807;DHT22;31507;51.494;7.518;2023-05-25T08:39:32;13.40;99.90
45807;DHT22;31507;51.494;7.518;2023-05-25T08:41:57;13.50;99.90
45807;DHT22;31507;51.494;7.518;2023-05-25T08:44:25;13.50;99.90
45807;DHT22;31507;51.494;7.518;2023-05-25T08:46:51;13.60;99.90
45807;DHT22;31507;51.494;7.518;2023-05-25T08:49:19;13.90;99.90
45807;DHT22;31507;51.494;7.518;2023-05-25T08:51:53;14.10;99.90
45807;DHT22;31507;51.494;7.518;2023-05-25T08:54:22;14.10;99.90
45807;DHT22;31507;51.494;7.518;2023-05-25T08:56:50;14.10;99.90
45807;DHT22;31507;51.494;7.518;2023-05-25T09:01:51;13.80;99.90
45807;DHT22;31507;51.494;7.518;2023-05-25T09:04:17;13.90;99.90
45807;DHT22;31507;51.494;7.518;2023-05-25T09:06:44;13.90;99.90
45807;DHT22;31507;51.494;7.518;2023-05-25T09:09:10;13.70;99.90
45807;DHT22;31507;51.494;7.518;2023-05-25T09:11:38;13.60;99.90
45807;DHT22;31507;51.494;7.518;2023-05-25T09:14:06;13.60;99.90
45807;DHT22;31507;51.494;7.518;2023-05-25T09:16:31;13.50;99.90
45807;DHT22;31507;51.494;7.518;2023-05-25T09:18:58;13.30;99.90
45807;DHT22;31507;51.494;7.518;2023-05-25T09:21:24;13.30;99.90
45807;DHT22;31507;51.494;7.518;2023-05-25T09:23:50;13.40;99.90
45807;DHT22;31507;51.494;7.518;2023-05-25T09:26:17;13.40;99.90
45807;DHT22;31507;51.494;7.518;2023-05-25T09:28:46;13.30;99.90
45807;DHT22;31507;51.494;7.518;2023-05-25T09:31:14;13.10;99.90
45807;DHT22;31507;51.494;7.518;2023-05-25T09:33:39;13.20;99.90
45807;DHT22;31507;51.494;7.518;2023-05-25T09:36:06;13.30;99.90
45807;DHT22;31507;51.494;7.518;2023-05-25T09:38:32;13.30;99.90
45807;DHT22;31507;51.494;7.518;2023-05-25T09:40:58;13.30;99.90
45807;DHT22;31507;51.494;7.518;2023-05-25T09:43:24;13.40;99.90
45807;DHT22;31507;51.494;7.518;2023-05-25T09:45:53;13.50;99.90
45807;DHT22;31507;51.494;7.518;2023-05-25T09:48:20;13.50;99.90
45807;DHT22;31507;51.494;7.518;2023-05-25T09:50:47;13.40;99.90
45807;DHT22;31507;51.494;7.518;2023-05-25T09:53:13;13.40;99.90
45807;DHT22;31507;51.494;7.518;2023-05-25T09:55:38;13.40;99.90
45807;DHT22;31507;51.494;7.518;2023-05-25T09:58:04;13.30;99.90
45807;DHT22;31507;51.494;7.518;2023-05-25T10:00:30;13.10;99.90
45807;DHT22;31507;51.494;7.518;2023-05-25T10:02:56;13.20;99.90
45807;DHT22;31507;51.494;7.518;2023-05-25T10:05:21;13.20;99.90
45807;DHT22;31507;51.494;7.518;2023-05-25T10:07:49;13.20;99.90
45807;DHT22;31507;51.494;7.518;2023-05-25T10:10:15;13.40;99.90
45807;DHT22;31507;51.494;7.518;2023-05-25T10:12:42;13.50;99.90
45807;DHT22;31507;51.494;7.518;2023-05-25T10:15:13;13.70;99.90
45807;DHT22;31507;51.494;7.518;2023-05-25T10:17:52;13.80;99.90
45807;DHT22;31507;51.494;7.518;2023-05-25T10:20:18;13.90;99.90
45807;DHT22;31507;51.494;7.518;2023-05-25T10:22:59;14.00;99.90
45807;DHT22;31507;51.494;7.518;2023-05-25T10:25:26;13.90;99.90
45807;DHT22;31507;51.494;7.518;2023-05-25T10:28:07;14.00;99.90
45807;DHT22;31507;51.494;7.518;2023-05-25T10:30:38;13.90;99.90
45807;DHT22;31507;51.494;7.518;2023-05-25T10:33:05;13.80;99.90
45807;DHT22;31507;51.494;7.518;2023-05-25T10:35:32;13.70;99.90
45807;DHT22;31507;51.494;7.518;2023-05-25T10:37:59;13.60;99.90
45807;DHT22;31507;51.494;7.518;2023-05-25T10:40:25;13.50;99.90
45807;DHT22;31507;51.494;7.518;2023-05-25T10:42:51;13.60;99.90
45807;DHT22;31507;51.494;7.518;2023-05-25T10:45:17;13.90;99.90
45807;DHT22;31507;51.494;7.518;2023-05-25T10:47:44;14.20;99.90
45807;DHT22;31507;51.494;7.518;2023-05-25T10:50:21;14.20;99.90
45807;DHT22;31507;51.494;7.518;2023-05-25T10:53:00;14.20;99.90
45807;DHT22;31507;51.494;7.518;2023-05-25T10:55:28;14.00;99.90
45807;DHT22;31507;51.494;7.518;2023-05-25T10:58:16;14.00;99.90
45807;DHT22;31507;51.494;7.518;2023-05-25T11:01:02;14.20;99.90
45807;DHT22;31507;51.494;7.518;2023-05-25T11:06:09;14.40;99.90
45807;DHT22;31507;51.494;7.518;2023-05-25T11:14:05;15.00;99.90
45807;DHT22;31507;51.494;7.518;2023-05-25T11:17:06;15.20;99.90
45807;DHT22;31507;51.494;7.518;2023-05-25T11:19:44;15.60;99.90
45807;DHT22;31507;51.494;7.518;2023-05-25T11:22:15;15.70;99.90
45807;DHT22;31507;51.494;7.518;2023-05-25T11:24:42;15.90;99.90
45807;DHT22;31507;51.494;7.518;2023-05-25T11:27:13;15.60;99.90
45807;DHT22;31507;51.494;7.518;2023-05-25T11:29:40;15.50;99.90
45807;DHT22;31507;51.494;7.518;2023-05-25T11:32:13;15.30;99.90
45807;DHT22;31507;51.494;7.518;2023-05-25T11:34:39;15.30;99.90
45807;DHT22;31507;51.494;7.518;2023-05-25T11:37:11;15.20;99.90
45807;DHT22;31507;51.494;7.518;2023-05-25T11:39:38;15.20;99.90
45807;DHT22;31507;51.494;7.518;2023-05-25T11:42:04;15.40;99.90
45807;DHT22;31507;51.494;7.518;2023-05-25T11:44:32;15.80;99.90
45807;DHT22;31507;51.494;7.518;2023-05-25T11:47:04;15.80;99.90
45807;DHT22;31507;51.494;7.518;2023-05-25T11:49:33;15.80;99.90
45807;DHT22;31507;51.494;7.518;2023-05-25T11:52:03;16.00;99.90
45807;DHT22;31507;51.494;7.518;2023-05-25T11:54:29;16.40;99.90
45807;DHT22;31507;51.494;7.518;2023-05-25T11:56:56;16.30;99.90
45807;DHT22;31507;51.494;7.518;2023-05-25T11:59:25;16.30;99.90
45807;DHT22;31507;51.494;7.518;2023-05-25T12:02:04;16.70;99.90
45807;DHT22;31507;51.494;7.518;2023-05-25T12:04:32;16.90;99.90
45807;DHT22;31507;51.494;7.518;2023-05-25T12:07:41;17.00;99.90
45807;DHT22;31507;51.494;7.518;2023-05-25T12:10:11;16.80;99.60
45807;DHT22;31507;51.494;7.518;2023-05-25T12:15:29;16.70;99.90
45807;DHT22;31507;51.494;7.518;2023-05-25T12:17:58;16.60;99.90
45807;DHT22;31507;51.494;7.518;2023-05-25T12:20:26;16.60;99.90
45807;DHT22;31507;51.494;7.518;2023-05-25T12:22:52;16.40;99.90
45807;DHT22;31507;51.494;7.518;2023-05-25T12:25:29;16.10;99.90
45807;DHT22;31507;51.494;7.518;2023-05-25T12:28:18;15.60;99.90
45807;DHT22;31507;51.494;7.518;2023-05-25T12:30:44;15.30;99.90
45807;DHT22;31507;51.494;7.518;2023-05-25T12:33:12;15.10;99.90
45807;DHT22;31507;51.494;7.518;2023-05-25T12:35:46;15.00;99.90
45807;DHT22;31507;51.494;7.518;2023-05-25T12:38:13;15.10;99.90
45807;DHT22;31507;51.494;7.518;2023-05-25T12:40:40;15.20;99.90
45807;DHT22;31507;51.494;7.518;2023-05-25T12:43:06;15.50;99.90
45807;DHT22;31507;51.494;7.518;2023-05-25T12:45:31;15.60;99.90
45807;DHT22;31507;51.494;7.518;2023-05-25T12:47:57;15.80;99.90
45807;DHT22;31507;51.494;7.518;2023-05-25T12:50:23;15.90;99.90
45807;DHT22;31507;51.494;7.518;2023-05-25T12:52:49;16.30;99.90
45807;DHT22;31507;51.494;7.518;2023-05-25T12:55:28;16.50;99.90
45807;DHT22;31507;51.494;7.518;2023-05-25T12:58:05;16.50;99.90
45807;DHT22;31507;51.494;7.518;2023-05-25T13:03:02;16.40;99.90
45807;DHT22;31507;51.494;7.518;2023-05-25T13:05:33;16.10;99.90
45807;DHT22;31507;51.494;7.518;2023-05-25T13:08:00;15.90;99.90
45807;DHT22;31507;51.494;7.518;2023-05-25T13:10:29;15.70;99.90
45807;DHT22;31507;51.494;7.518;2023-05-25T13:12:57;15.80;99.90
45807;DHT22;31507;51.494;7.518;2023-05-25T13:15:24;16.00;99.90
45807;DHT22;31507;51.494;7.518;2023-05-25T13:17:51;16.10;99.90
45807;DHT22;31507;51.494;7.518;2023-05-25T13:20:21;16.30;99.90
45807;DHT22;31507;51.494;7.518;2023-05-25T13:22:48;16.00;99.90
45807;DHT22;31507;51.494;7.518;2023-05-25T13:25:14;15.80;99.90
45807;DHT22;31507;51.494;7.518;2023-05-25T13:27:45;15.70;99.90
45807;DHT22;31507;51.494;7.518;2023-05-25T13:30:11;15.50;99.90
45807;DHT22;31507;51.494;7.518;2023-05-25T13:32:40;15.40;99.90
45807;DHT22;31507;51.494;7.518;2023-05-25T13:35:08;15.40;99.90
45807;DHT22;31507;51.494;7.518;2023-05-25T13:37:36;15.40;99.90
45807;DHT22;31507;51.494;7.518;2023-05-25T13:40:02;15.60;99.90
45807;DHT22;31507;51.494;7.518;2023-05-25T13:42:28;15.90;99.90
45807;DHT22;31507;51.494;7.518;2023-05-25T13:44:54;16.10;99.90
45807;DHT22;31507;51.494;7.518;2023-05-25T13:47:20;16.20;99.90
45807;DHT22;31507;51.494;7.518;2023-05-25T13:49:45;16.20;99.90
45807;DHT22;31507;51.494;7.518;2023-05-25T13:52:11;16.10;99.90
45807;DHT22;31507;51.494;7.518;2023-05-25T13:54:38;15.90;99.90
45807;DHT22;31507;51.494;7.518;2023-05-25T13:57:03;15.70;99.90
45807;DHT22;31507;51.494;7.518;2023-05-25T13:59:29;15.60;99.90
45807;DHT22;31507;51.494;7.518;2023-05-25T14:01:54;15.50;99.90
45807;DHT22;31507;51.494;7.518;2023-05-25T14:04:20;15.50;99.90
45807;DHT22;31507;51.494;7.518;2023-05-25T14:06:46;15.90;99.90
45807;DHT22;31507;51.494;7.518;2023-05-25T14:09:12;16.90;99.90
45807;DHT22;31507;51.494;7.518;2023-05-25T14:11:38;17.70;99.90
45807;DHT22;31507;51.494;7.518;2023-05-25T14:14:04;18.60;99.90
45807;DHT22;31507;51.494;7.518;2023-05-25T14:16:36;18.50;97.90
45807;DHT22;31507;51.494;7.518;2023-05-25T14:19:03;18.10;93.90
45807;DHT22;31507;51.494;7.518;2023-05-25T14:21:29;17.40;98.50
45807;DHT22;31507;51.494;7.518;2023-05-25T14:23:56;17.60;97.00
45807;DHT22;31507;51.494;7.518;2023-05-25T14:26:22;18.00;96.80
45807;DHT22;31507;51.494;7.518;2023-05-25T14:28:48;18.00;96.20
45807;DHT22;31507;51.494;7.518;2023-05-25T14:31:14;17.80;96.50
45807;DHT22;31507;51.494;7.518;2023-05-25T14:33:39;17.60;96.90
45807;DHT22;31507;51.494;7.518;2023-05-25T14:36:05;17.20;97.20
45807;DHT22;31507;51.494;7.518;2023-05-25T14:38:31;17.00;97.30
45807;DHT22;31507;51.494;7.518;2023-05-25T14:40:57;17.50;98.10
45807;DHT22;31507;51.494;7.518;2023-05-25T14:43:23;18.30;96.50
45807;DHT22;31507;51.494;7.518;2023-05-25T14:45:49;18.70;95.00
45807;DHT22;31507;51.494;7.518;2023-05-25T14:48:14;18.60;92.60
45807;DHT22;31507;51.494;7.518;2023-05-25T14:50:42;18.20;94.10
45807;DHT22;31507;51.494;7.518;2023-05-25T14:53:08;18.20;95.10
45807;DHT22;31507;51.494;7.518;2023-05-25T14:55:34;18.60;94.50
45807;DHT22;31507;51.494;7.518;2023-05-25T14:58:00;18.40;94.20
45807;DHT22;31507;51.494;7.518;2023-05-25T15:00:25;18.60;94.50
45807;DHT22;31507;51.494;7.518;2023-05-25T15:02:51;19.30;92.50
45807;DHT22;31507;51.494;7.518;2023-05-25T15:05:16;19.50;90.90
45807;DHT22;31507;51.494;7.518;2023-05-25T15:07:42;19.30;92.30
45807;DHT22;31507;51.494;7.518;2023-05-25T15:10:08;19.40;91.70
45807;DHT22;31507;51.494;7.518;2023-05-25T15:12:34;19.00;91.30
45807;DHT22;31507;51.494;7.518;2023-05-25T15:14:59;18.60;91.90
45807;DHT22;31507;51.494;7.518;2023-05-25T15:17:25;18.50;91.70
45807;DHT22;31507;51.494;7.518;2023-05-25T15:19:51;18.60;91.70
45807;DHT22;31507;51.494;7.518;2023-05-25T15:22:16;18.20;90.60
45807;DHT22;31507;51.494;7.518;2023-05-25T15:24:42;18.10;91.90
45807;DHT22;31507;51.494;7.518;2023-05-25T15:27:08;18.20;92.20
45807;DHT22;31507;51.494;7.518;2023-05-25T15:29:33;18.50;91.80
45807;DHT22;31507;51.494;7.518;2023-05-25T15:31:59;18.60;91.60
45807;DHT22;31507;51.494;7.518;2023-05-25T15:34:25;18.70;91.80
45807;DHT22;31507;51.494;7.518;2023-05-25T15:36:50;19.00;91.00
45807;DHT22;31507;51.494;7.518;2023-05-25T15:39:16;19.10;89.30
45807;DHT22;31507;51.494;7.518;2023-05-25T15:41:41;18.80;87.70
45807;DHT22;31507;51.494;7.518;2023-05-25T15:44:07;18.60;88.90
45807;DHT22;31507;51.494;7.518;2023-05-25T15:46:37;19.00;88.50
45807;DHT22;31507;51.494;7.518;2023-05-25T15:49:02;19.00;87.70
45807;DHT22;31507;51.494;7.518;2023-05-25T15:51:35;18.40;87.90
45807;DHT22;31507;51.494;7.518;2023-05-25T15:54:02;17.90;90.20